KSNY/SNY METAR and TAF weather

Enter ICAO airport designator
Station Type Date Time Source
KSNY METAR 2020/09/22 02:53 UTC NOAA

KSNY 220253Z AUTO 14006KT 10SM FEW120 18/07 A3012 RMK AO2 SLP162 T01830067 53009


Station Type Date Time Source
KSNY Decoded METAR 2020/09/22 02:53 UTC NOAA

SIDNEY MUNICIPAL AIRPORT, NE, United States (KSNY) 41-06N 102-59W 1307M
Sep 21, 2020 - 10:53 PM EDT / 2020.09.22 0253 UTC
Wind: from the SE (140 degrees) at 7 MPH (6 KT):0
Visibility: 10 mile(s):0
Sky conditions: mostly clear
Temperature: 64.9 F (18.3 C)
Dew Point: 44.1 F (6.7 C)
Relative Humidity: 46%
Pressure (altimeter): 30.12 in. Hg (1019 hPa)
Pressure tendency: 0.03 inches (0.9 hPa) higher than three hours ago
ob: KSNY 220253Z AUTO 14006KT 10SM FEW120 18/07 A3012 RMK AO2 SLP162 T01830067 53009
cycle: 3

Station Type Date Time Source
KSNY TAF 2020/09/21 18:27 UTC NOAA

TAF KSNY 211722Z 2118/2218 31008KT P6SM SKC
FM220000 VRB05KT P6SM SKC

Example: see airport list